Cheryl K — WDD3191 — position and weather

sailwx.info

Track history (hours):
 
Tides and Currents Weather Stations Pressure Air Temp Water Temp Dewpoint Dewpoint Depression Visibility Wind Speed Wind Dir Waves Ship Positions

Cheryl K

Owner: The Tug Cheryl K, L.L.C., Sugar Land, TX. More information available from US FCC via Universal Licensing System and Coast Guard Vessel Documentation Center.

Last reported at 2017-Oct-06 05:31 UTC. Time now 2017-Oct-18 20:32 UTC.
Position N 29°45' W 095°19'.
Warning: this ship's position is 12 days out of date.

Length 21 m.

Type: Towing. MMSI: 367127110.

Date/timePositionNaut miles runAvg speedWind from/ knotsBaromVisibWave heightAir tempDewpointWater temp
2017-Oct-06 05:31N 29°45' W 095°19'0 1.9
2017-Oct-06 05:30N 29°45' W 095°19'0 0.5
2017-Oct-06 04:58N 29°45' W 095°18'1 1.3
2017-Oct-06 04:24N 29°45' W 095°18'2 3.1
2017-Oct-06 03:54N 29°44' W 095°16'2 3.8
2017-Oct-06 03:16N 29°44' W 095°14'5 0.6
2017-Oct-05 18:57N 29°45' W 095°19'1 0.0
2017-Oct-04 16:55N 29°45' W 095°18'0 0.7
2017-Oct-04 16:14N 29°45' W 095°18'2 0.2
2017-Oct-04 06:12N 29°43' W 095°16'1 6.1
2017-Oct-04 05:57N 29°45' W 095°17'1 1.7
2017-Oct-04 05:07N 29°45' W 095°19'0 0.0
2017-Oct-04 05:00N 29°45' W 095°19'0 0.8
2017-Oct-04 04:28N 29°45' W 095°18'1 0.9
2017-Oct-04 03:51N 29°45' W 095°18'1 2.0
2017-Oct-04 03:28N 29°44' W 095°17'2 3.2
2017-Oct-04 03:00N 29°44' W 095°15'  
Track history (hours):
 
Tides and Currents Weather Stations Pressure Air Temp Water Temp Dewpoint Dewpoint Depression Visibility Wind Speed Wind Dir Waves Ship Positions

Cheryl K

Owner: The Tug Cheryl K, L.L.C., Sugar Land, TX. More information available from US FCC via Universal Licensing System and Coast Guard Vessel Documentation Center.

Last reported at 2017-Oct-06 05:31 UTC. Time now 2017-Oct-18 20:32 UTC.
Position N 29°45' W 095°19'.
Warning: this ship's position is 12 days out of date.

Length 21 m.

Type: Towing. MMSI: 367127110.

Date/timePositionNaut miles runAvg speedWind from/ knotsBaromVisibWave heightAir tempDewpointWater temp
2017-Oct-06 05:31N 29°45' W 095°19'0 1.9
2017-Oct-06 05:30N 29°45' W 095°19'0 0.5
2017-Oct-06 04:58N 29°45' W 095°18'1 1.3
2017-Oct-06 04:24N 29°45' W 095°18'2 3.1
2017-Oct-06 03:54N 29°44' W 095°16'2 3.8
2017-Oct-06 03:16N 29°44' W 095°14'5 0.6
2017-Oct-05 18:57N 29°45' W 095°19'1 0.0
2017-Oct-04 16:55N 29°45' W 095°18'0 0.7
2017-Oct-04 16:14N 29°45' W 095°18'2 0.2
2017-Oct-04 06:12N 29°43' W 095°16'1 6.1
2017-Oct-04 05:57N 29°45' W 095°17'1 1.7
2017-Oct-04 05:07N 29°45' W 095°19'0 0.0
2017-Oct-04 05:00N 29°45' W 095°19'0 0.8
2017-Oct-04 04:28N 29°45' W 095°18'1 0.9
2017-Oct-04 03:51N 29°45' W 095°18'1 2.0
2017-Oct-04 03:28N 29°44' W 095°17'2 3.2
2017-Oct-04 03:00N 29°44' W 095°15'  

Dump ship's entire track history